createdAt,value
2023-06-27T00:01:54.014Z,97846.53
2023-06-27T00:06:55.876Z,97853.50
2023-06-27T00:11:57.526Z,97854.88
2023-06-27T00:17:01.387Z,97868.31
2023-06-27T00:22:07.248Z,97867.44
2023-06-27T00:27:09.056Z,97860.81
2023-06-27T00:32:10.698Z,97868.59
2023-06-27T00:37:13.157Z,97874.97
2023-06-27T00:42:14.862Z,97880.75
2023-06-27T00:47:16.550Z,97871.06
2023-06-27T00:52:18.325Z,97871.75
2023-06-27T00:57:21.663Z,97879.00
2023-06-27T01:02:25.434Z,97887.53
2023-06-27T01:07:35.565Z,97884.88
2023-06-27T01:13:11.273Z,97887.41
2023-06-27T01:18:13.645Z,97884.56
2023-06-27T01:23:21.450Z,97894.75
2023-06-27T01:28:25.469Z,97887.72
2023-06-27T01:33:33.723Z,97900.81
2023-06-27T01:39:06.938Z,97905.03
2023-06-27T01:44:11.428Z,97908.28
2023-06-27T01:49:17.011Z,97915.38
2023-06-27T01:54:18.694Z,97905.72
2023-06-27T01:59:20.357Z,97915.91
2023-06-27T02:04:22.498Z,97917.78
2023-06-27T02:09:24.512Z,97920.81
2023-06-27T02:14:26.202Z,97921.44
2023-06-27T02:19:27.934Z,97923.72
2023-06-27T02:24:29.837Z,97931.38
2023-06-27T02:29:31.973Z,97936.56
2023-06-27T02:34:33.634Z,97937.41
2023-06-27T02:39:35.290Z,97933.56
2023-06-27T02:44:37.141Z,97942.25
2023-06-27T02:49:38.791Z,97946.72
2023-06-27T02:54:40.495Z,97961.66
2023-06-27T02:59:42.166Z,97953.78
2023-06-27T03:04:43.988Z,97963.72
2023-06-27T03:09:45.684Z,97970.34
2023-06-27T03:14:49.993Z,97974.59
2023-06-27T03:19:51.852Z,97970.38
2023-06-27T03:24:53.643Z,97985.50
2023-06-27T03:29:55.465Z,97984.50
2023-06-27T03:34:59.610Z,97985.50
2023-06-27T03:40:01.339Z,97991.75
2023-06-27T03:45:04.122Z,97985.69
2023-06-27T03:50:06.518Z,98003.06
2023-06-27T03:55:08.700Z,98003.84
2023-06-27T04:00:12.281Z,97997.78
2023-06-27T04:05:19.578Z,98005.28
2023-06-27T04:10:21.551Z,98002.66
2023-06-27T04:15:23.267Z,98004.66
2023-06-27T04:20:25.231Z,98001.63
2023-06-27T04:25:31.762Z,98007.69
2023-06-27T04:30:33.759Z,98011.50
2023-06-27T04:35:35.437Z,98013.91
2023-06-27T04:40:37.254Z,98016.31
2023-06-27T04:45:39.119Z,98017.53
2023-06-27T04:50:41.042Z,98029.66
2023-06-27T04:55:44.361Z,98023.59
2023-06-27T05:00:48.371Z,98026.22
2023-06-27T05:05:50.429Z,98028.06
2023-06-27T05:10:52.254Z,98040.56
2023-06-27T05:15:53.874Z,98037.31
2023-06-27T05:20:56.165Z,98042.56
2023-06-27T05:25:57.810Z,98029.59
2023-06-27T05:30:59.535Z,98034.94
2023-06-27T05:36:01.256Z,98041.56
2023-06-27T05:41:03.832Z,98044.69
2023-06-27T05:46:05.572Z,98037.78
2023-06-27T05:51:08.333Z,98050.94
2023-06-27T05:56:10.037Z,98052.97
2023-06-27T06:01:11.753Z,98059.78
2023-06-27T06:06:13.408Z,98052.03
2023-06-27T06:11:15.062Z,98048.09
2023-06-27T06:16:16.710Z,98051.25
2023-06-27T06:21:18.430Z,98052.78
2023-06-27T06:26:20.401Z,98048.59
2023-06-27T06:31:24.180Z,98051.47
2023-06-27T06:36:25.913Z,98055.41
2023-06-27T06:41:28.498Z,98051.53
2023-06-27T06:46:30.197Z,98051.75
2023-06-27T06:51:31.970Z,98059.50
2023-06-27T06:56:33.624Z,98058.06
2023-06-27T07:01:35.369Z,98062.69
2023-06-27T07:06:37.193Z,98064.69
2023-06-27T07:11:38.903Z,98062.59
2023-06-27T07:16:40.601Z,98051.91
2023-06-27T07:21:42.500Z,98054.63
2023-06-27T07:26:44.238Z,98052.03
2023-06-27T07:31:45.934Z,98040.00
2023-06-27T07:36:48.865Z,98036.66
2023-06-27T07:41:51.309Z,98044.69
2023-06-27T07:46:53.021Z,98039.38
2023-06-27T07:51:54.634Z,98032.94
2023-06-27T07:56:57.739Z,98029.06
2023-06-27T08:01:59.856Z,98033.53
2023-06-27T08:07:01.646Z,98021.00
2023-06-27T08:12:04.703Z,98019.69
2023-06-27T08:17:06.710Z,98029.03
2023-06-27T08:22:09.006Z,98018.34
2023-06-27T08:27:10.750Z,98017.88
2023-06-27T08:32:12.498Z,98020.69
2023-06-27T08:37:14.796Z,98006.09
2023-06-27T08:42:16.441Z,98012.41
2023-06-27T08:47:22.334Z,98008.56
2023-06-27T08:52:25.841Z,98008.66
2023-06-27T08:57:32.707Z,98004.38
2023-06-27T09:02:35.989Z,98011.19
2023-06-27T09:07:37.974Z,98006.84
2023-06-27T09:12:42.486Z,98003.44
2023-06-27T09:17:44.152Z,98010.63
2023-06-27T09:22:46.257Z,97998.88
2023-06-27T09:27:49.174Z,97996.13
2023-06-27T09:32:53.621Z,98012.81
2023-06-27T09:43:13.217Z,98001.84
2023-06-27T09:48:18.727Z,98004.00
2023-06-27T09:53:20.487Z,98001.31
2023-06-27T09:58:32.166Z,98009.38
2023-06-27T10:03:38.127Z,98002.72
2023-06-27T10:08:40.632Z,97994.38
2023-06-27T10:13:42.727Z,98001.19
2023-06-27T10:18:44.972Z,97983.91
2023-06-27T10:23:49.929Z,97974.69
2023-06-27T10:28:52.158Z,97981.03
2023-06-27T10:33:54.340Z,97979.09
2023-06-27T10:38:56.496Z,97971.09
2023-06-27T10:43:58.175Z,97960.81
2023-06-27T10:49:03.081Z,97956.09
2023-06-27T10:54:08.636Z,97955.09
2023-06-27T10:59:13.149Z,97958.81
2023-06-27T11:04:26.800Z,97960.34
2023-06-27T11:09:32.481Z,97962.06
2023-06-27T11:14:40.364Z,97954.84
2023-06-27T11:19:43.802Z,97955.47
2023-06-27T11:24:46.473Z,97956.50
2023-06-27T11:29:48.121Z,97954.38
2023-06-27T11:34:50.183Z,97945.44
2023-06-27T11:39:57.849Z,97929.66
2023-06-27T11:44:59.530Z,97931.78
2023-06-27T11:50:08.378Z,97927.91
2023-06-27T11:55:10.250Z,97933.03
2023-06-27T12:00:18.048Z,97902.94
2023-06-27T12:05:23.337Z,97901.16
2023-06-27T12:10:25.602Z,97910.97
2023-06-27T12:15:27.281Z,97913.97
2023-06-27T12:20:49.162Z,97908.41
2023-06-27T12:25:51.292Z,97898.16
2023-06-27T12:30:52.974Z,97893.91
2023-06-27T12:35:55.694Z,97885.69
2023-06-27T12:40:57.362Z,97893.34
2023-06-27T12:46:00.910Z,97891.13
2023-06-27T12:51:04.012Z,97891.91
2023-06-27T12:56:06.302Z,97891.75
2023-06-27T13:01:08.223Z,97887.84
2023-06-27T13:06:10.092Z,97869.69
2023-06-27T13:11:12.001Z,97887.84
2023-06-27T13:16:16.476Z,97873.03
2023-06-27T13:21:19.948Z,97891.28
2023-06-27T13:26:22.203Z,97881.09
2023-06-27T13:31:24.424Z,97875.91
2023-06-27T13:36:26.283Z,97877.06
2023-06-27T13:41:30.249Z,97871.47
2023-06-27T13:46:31.893Z,97865.47
2023-06-27T13:51:33.532Z,97869.41
2023-06-27T13:56:37.301Z,97852.47
2023-06-27T14:01:40.176Z,97865.00
2023-06-27T14:06:42.113Z,97847.31
2023-06-27T14:11:43.855Z,97838.28
2023-06-27T14:16:45.559Z,97834.81
2023-06-27T14:21:47.255Z,97835.00
2023-06-27T14:26:48.931Z,97847.91
2023-06-27T14:31:50.624Z,97828.28
2023-06-27T14:36:53.297Z,97825.91
2023-06-27T14:41:55.035Z,97819.38
2023-06-27T14:46:56.794Z,97807.72
2023-06-27T14:51:58.485Z,97808.94
2023-06-27T14:57:00.156Z,97805.78
2023-06-27T15:02:01.825Z,97810.75
2023-06-27T15:07:03.577Z,97805.44
2023-06-27T15:12:05.814Z,97794.84
2023-06-27T15:17:07.552Z,97797.97
2023-06-27T15:22:09.202Z,97790.38
2023-06-27T15:27:10.917Z,97798.66
2023-06-27T15:32:12.961Z,97816.03
2023-06-27T15:37:14.751Z,97816.09
2023-06-27T15:42:16.601Z,97820.19
2023-06-27T15:47:18.565Z,97829.09
2023-06-27T15:52:20.419Z,97824.66
2023-06-27T15:57:22.472Z,97819.19
2023-06-27T16:02:24.528Z,97811.41
2023-06-27T16:07:26.271Z,97811.25
2023-06-27T16:12:28.133Z,97806.00
2023-06-27T16:17:29.981Z,97798.97
2023-06-27T16:22:32.197Z,97788.78
2023-06-27T16:27:34.017Z,97794.06
2023-06-27T16:32:36.995Z,97803.75
2023-06-27T16:37:38.767Z,97829.56
2023-06-27T16:42:40.485Z,97841.78
2023-06-27T16:47:42.200Z,97842.09
2023-06-27T16:52:43.876Z,97837.41
2023-06-27T16:57:45.521Z,97841.03
2023-06-27T17:02:49.145Z,97844.38
2023-06-27T17:07:51.028Z,97828.09
2023-06-27T17:12:53.069Z,97825.88
2023-06-27T17:17:54.794Z,97838.09
2023-06-27T17:22:56.481Z,97841.47
2023-06-27T17:27:58.247Z,97840.91
2023-06-27T17:32:59.962Z,97848.16
2023-06-27T17:38:01.809Z,97844.13
2023-06-27T17:43:03.485Z,97844.34
2023-06-27T17:48:05.587Z,97838.50
2023-06-27T17:53:07.277Z,97827.88
2023-06-27T17:58:09.036Z,97839.06
2023-06-27T18:03:10.727Z,97843.16
2023-06-27T18:08:13.896Z,97840.44
2023-06-27T18:13:15.640Z,97845.69
2023-06-27T18:18:17.576Z,97840.53
2023-06-27T18:23:19.223Z,97832.09
2023-06-27T18:28:26.415Z,97833.69
2023-06-27T18:33:28.066Z,97834.19
2023-06-27T18:38:32.029Z,97841.19
2023-06-27T18:43:33.734Z,97830.19
2023-06-27T18:48:36.297Z,97823.88
2023-06-27T18:53:38.096Z,97843.28
2023-06-27T18:58:40.890Z,97862.97
2023-06-27T19:03:42.620Z,97869.19
2023-06-27T19:08:44.378Z,97866.13
2023-06-27T19:13:47.286Z,97862.41
2023-06-27T19:18:49.340Z,97871.53
2023-06-27T19:23:51.521Z,97870.19
2023-06-27T19:28:53.196Z,97873.41
2023-06-27T19:33:54.989Z,97879.19
2023-06-27T19:38:56.659Z,97886.44
2023-06-27T19:43:58.366Z,97901.13
2023-06-27T19:49:00.246Z,97915.81
2023-06-27T19:54:01.904Z,97916.34
2023-06-27T19:59:03.642Z,97905.25
2023-06-27T20:04:05.369Z,97899.06
2023-06-27T20:09:07.077Z,97886.72
2023-06-27T20:14:10.897Z,97890.34
2023-06-27T20:19:12.778Z,97887.00
2023-06-27T20:24:14.511Z,97885.63
2023-06-27T20:29:16.142Z,97890.09
2023-06-27T20:34:17.775Z,97895.16
2023-06-27T20:39:19.449Z,97894.16
2023-06-27T20:44:21.224Z,97888.03
2023-06-27T20:49:22.868Z,97909.03
2023-06-27T20:54:24.487Z,97896.00
2023-06-27T20:59:26.227Z,97904.31
2023-06-27T21:04:28.002Z,97910.88
2023-06-27T21:09:29.692Z,97903.75
2023-06-27T21:14:31.400Z,97905.84
2023-06-27T21:19:33.066Z,97901.13
2023-06-27T21:24:34.710Z,97909.94
2023-06-27T21:29:36.363Z,97907.31
2023-06-27T21:34:38.009Z,97915.09
2023-06-27T21:39:40.041Z,97902.56
2023-06-27T21:44:41.685Z,97895.31
2023-06-27T21:49:43.355Z,97895.28
2023-06-27T21:54:45.029Z,97898.22
2023-06-27T21:59:46.692Z,97892.13
2023-06-27T22:04:48.468Z,97895.53
2023-06-27T22:09:50.430Z,97895.53
2023-06-27T22:14:53.080Z,97899.50
2023-06-27T22:19:54.965Z,97895.25
2023-06-27T22:24:57.936Z,97902.84
2023-06-27T22:29:59.710Z,97894.19
2023-06-27T22:35:01.364Z,97897.91
2023-06-27T22:40:03.778Z,97888.91
2023-06-27T22:45:06.536Z,97887.22
2023-06-27T22:50:08.630Z,97877.09
2023-06-27T22:55:10.286Z,97882.19
2023-06-27T23:00:13.172Z,97878.53
2023-06-27T23:05:15.086Z,97871.41
2023-06-27T23:10:16.765Z,97874.56
2023-06-27T23:15:18.388Z,97871.53
2023-06-27T23:20:20.099Z,97874.69
2023-06-27T23:25:22.975Z,97873.00
2023-06-27T23:30:27.553Z,97871.22
2023-06-27T23:35:29.372Z,97868.78
2023-06-27T23:40:31.089Z,97866.56
2023-06-27T23:45:33.505Z,97874.53
2023-06-27T23:50:35.179Z,97867.66
2023-06-27T23:55:36.805Z,97869.00
